KHUL/HUL METAR and TAF weather

Enter ICAO airport designator
Station Type Date Time Source
KHUL METAR 2019/04/18 21:53 UTC NOAA

KHUL 182153Z AUTO 16009G16KT 4SM -RA BR BKN033 OVC060 03/01 A3009 RMK AO2 PK WND 24028/2104 SLP198 P0003 T00280006


Station Type Date Time Source
KHUL Decoded METAR 2019/04/18 21:53 UTC NOAA

HOULTON INT'L AIRPORT, ME, United States (KHUL) 46-07N 067-48W 150M
Apr 18, 2019 - 05:53 PM EDT / 2019.04.18 2153 UTC
Wind: from the SSE (160 degrees) at 10 MPH (9 KT) gusting to 18 MPH (16 KT):0
Visibility: 4 mile(s):0
Sky conditions: overcast
Weather: light rain; mist
Precipitation last hour: 0.03 inches
Temperature: 37.0 F (2.8 C)
Dew Point: 33.1 F (0.6 C)
Relative Humidity: 85%
Pressure (altimeter): 30.09 in. Hg (1018 hPa)
ob: KHUL 182153Z AUTO 16009G16KT 4SM -RA BR BKN033 OVC060 03/01 A3009 RMK AO2 PK WND 24028/2104 SLP198 P0003 T00280006
cycle: 22

Station Type Date Time Source
KHUL TAF 2019/04/18 22:12 UTC NOAA

TAF
AMD KHUL 182209Z 1822/1918 16010G18KT P6SM -RA OVC035
FM190400 19014G24KT 3SM -RA BR OVC009
FM190700 21016G26KT 2SM -RA BR OVC007

Example: see airport list